sensor_id;sensor_type;location;lat;lon;timestamp;temperature;humidity
51011;DHT22;37038;50.182;8.624;2023-04-03T00:01:15;5.00;99.90
51011;DHT22;37038;50.182;8.624;2023-04-03T00:04:04;5.00;99.90
51011;DHT22;37038;50.182;8.624;2023-04-03T00:06:52;5.10;99.90
51011;DHT22;37038;50.182;8.624;2023-04-03T00:09:39;5.10;99.90
51011;DHT22;37038;50.182;8.624;2023-04-03T00:12:27;5.10;99.90
51011;DHT22;37038;50.182;8.624;2023-04-03T00:15:15;5.10;99.90
51011;DHT22;37038;50.182;8.624;2023-04-03T00:18:03;5.00;99.90
51011;DHT22;37038;50.182;8.624;2023-04-03T00:20:51;5.10;99.90
51011;DHT22;37038;50.182;8.624;2023-04-03T00:23:38;5.10;99.90
51011;DHT22;37038;50.182;8.624;2023-04-03T00:26:26;5.20;99.90
51011;DHT22;37038;50.182;8.624;2023-04-03T00:29:14;5.20;99.90
51011;DHT22;37038;50.182;8.624;2023-04-03T00:32:01;5.20;99.90
51011;DHT22;37038;50.182;8.624;2023-04-03T00:34:49;5.20;99.90
51011;DHT22;37038;50.182;8.624;2023-04-03T00:37:37;5.20;99.90
51011;DHT22;37038;50.182;8.624;2023-04-03T00:40:26;5.30;99.90
51011;DHT22;37038;50.182;8.624;2023-04-03T00:43:24;5.40;99.90
51011;DHT22;37038;50.182;8.624;2023-04-03T00:46:13;5.40;99.90
51011;DHT22;37038;50.182;8.624;2023-04-03T00:49:01;5.40;99.90
51011;DHT22;37038;50.182;8.624;2023-04-03T00:51:49;5.20;99.90
51011;DHT22;37038;50.182;8.624;2023-04-03T00:54:37;5.20;99.90
51011;DHT22;37038;50.182;8.624;2023-04-03T00:57:27;5.20;99.90
51011;DHT22;37038;50.182;8.624;2023-04-03T01:00:17;5.10;99.90
51011;DHT22;37038;50.182;8.624;2023-04-03T01:03:06;5.10;99.90
51011;DHT22;37038;50.182;8.624;2023-04-03T01:05:54;5.20;99.90
51011;DHT22;37038;50.182;8.624;2023-04-03T01:08:42;5.20;99.90
51011;DHT22;37038;50.182;8.624;2023-04-03T01:11:30;5.10;99.90
51011;DHT22;37038;50.182;8.624;2023-04-03T01:14:18;5.10;99.90
51011;DHT22;37038;50.182;8.624;2023-04-03T01:17:29;5.20;99.90
51011;DHT22;37038;50.182;8.624;2023-04-03T01:26:20;4.90;99.90
51011;DHT22;37038;50.182;8.624;2023-04-03T01:29:08;5.00;99.90
51011;DHT22;37038;50.182;8.624;2023-04-03T01:31:58;5.10;99.90
51011;DHT22;37038;50.182;8.624;2023-04-03T01:34:47;5.00;99.90
51011;DHT22;37038;50.182;8.624;2023-04-03T01:37:34;4.90;99.90
51011;DHT22;37038;50.182;8.624;2023-04-03T01:40:22;4.90;99.90
51011;DHT22;37038;50.182;8.624;2023-04-03T01:43:09;4.80;99.90
51011;DHT22;37038;50.182;8.624;2023-04-03T01:45:57;4.90;99.90
51011;DHT22;37038;50.182;8.624;2023-04-03T01:48:45;4.90;99.90
51011;DHT22;37038;50.182;8.624;2023-04-03T01:51:33;4.90;99.90
51011;DHT22;37038;50.182;8.624;2023-04-03T01:54:21;5.00;99.90
51011;DHT22;37038;50.182;8.624;2023-04-03T01:57:08;4.90;99.90
51011;DHT22;37038;50.182;8.624;2023-04-03T01:59:56;4.90;99.90
51011;DHT22;37038;50.182;8.624;2023-04-03T02:02:44;5.00;99.90
51011;DHT22;37038;50.182;8.624;2023-04-03T02:05:31;5.00;99.90
51011;DHT22;37038;50.182;8.624;2023-04-03T02:08:19;5.00;99.90
51011;DHT22;37038;50.182;8.624;2023-04-03T02:11:10;5.20;99.90
51011;DHT22;37038;50.182;8.624;2023-04-03T02:13:57;5.10;99.90
51011;DHT22;37038;50.182;8.624;2023-04-03T02:16:45;5.20;99.90
51011;DHT22;37038;50.182;8.624;2023-04-03T02:19:33;5.20;99.90
51011;DHT22;37038;50.182;8.624;2023-04-03T02:22:23;5.00;99.90
51011;DHT22;37038;50.182;8.624;2023-04-03T02:25:11;5.00;99.90
51011;DHT22;37038;50.182;8.624;2023-04-03T02:27:59;4.90;99.90
51011;DHT22;37038;50.182;8.624;2023-04-03T02:30:47;4.80;99.90
51011;DHT22;37038;50.182;8.624;2023-04-03T02:33:35;4.90;99.90
51011;DHT22;37038;50.182;8.624;2023-04-03T02:36:26;4.90;99.90
51011;DHT22;37038;50.182;8.624;2023-04-03T02:39:14;5.00;99.90
51011;DHT22;37038;50.182;8.624;2023-04-03T02:42:02;4.90;99.90
51011;DHT22;37038;50.182;8.624;2023-04-03T02:44:51;4.90;99.90
51011;DHT22;37038;50.182;8.624;2023-04-03T02:47:39;4.80;99.90
51011;DHT22;37038;50.182;8.624;2023-04-03T02:50:27;4.80;99.90
51011;DHT22;37038;50.182;8.624;2023-04-03T02:53:14;4.70;99.90
51011;DHT22;37038;50.182;8.624;2023-04-03T02:56:02;4.70;99.90
51011;DHT22;37038;50.182;8.624;2023-04-03T02:58:50;4.60;99.90
51011;DHT22;37038;50.182;8.624;2023-04-03T03:01:37;4.50;99.90
51011;DHT22;37038;50.182;8.624;2023-04-03T03:04:27;4.40;99.90
51011;DHT22;37038;50.182;8.624;2023-04-03T03:07:14;4.30;99.90
51011;DHT22;37038;50.182;8.624;2023-04-03T03:10:02;4.20;99.90
51011;DHT22;37038;50.182;8.624;2023-04-03T03:12:50;4.10;99.90
51011;DHT22;37038;50.182;8.624;2023-04-03T03:15:38;4.10;99.90
51011;DHT22;37038;50.182;8.624;2023-04-03T03:18:25;4.10;99.90
51011;DHT22;37038;50.182;8.624;2023-04-03T03:21:13;4.20;99.90
51011;DHT22;37038;50.182;8.624;2023-04-03T03:24:01;4.10;99.90
51011;DHT22;37038;50.182;8.624;2023-04-03T03:26:48;4.00;99.90
51011;DHT22;37038;50.182;8.624;2023-04-03T03:29:36;4.00;99.90
51011;DHT22;37038;50.182;8.624;2023-04-03T03:32:27;4.00;99.90
51011;DHT22;37038;50.182;8.624;2023-04-03T03:35:15;4.00;99.90
51011;DHT22;37038;50.182;8.624;2023-04-03T03:38:03;4.00;99.90
51011;DHT22;37038;50.182;8.624;2023-04-03T03:40:51;3.80;99.90
51011;DHT22;37038;50.182;8.624;2023-04-03T03:43:39;3.80;99.90
51011;DHT22;37038;50.182;8.624;2023-04-03T03:46:27;3.70;99.90
51011;DHT22;37038;50.182;8.624;2023-04-03T03:49:15;3.70;99.90
51011;DHT22;37038;50.182;8.624;2023-04-03T03:52:02;3.70;99.90
51011;DHT22;37038;50.182;8.624;2023-04-03T03:54:50;3.70;99.90
51011;DHT22;37038;50.182;8.624;2023-04-03T03:57:41;3.70;99.90
51011;DHT22;37038;50.182;8.624;2023-04-03T04:00:29;3.60;99.90
51011;DHT22;37038;50.182;8.624;2023-04-03T04:03:16;3.50;99.90
51011;DHT22;37038;50.182;8.624;2023-04-03T04:06:04;3.40;99.90
51011;DHT22;37038;50.182;8.624;2023-04-03T04:08:52;3.40;99.90
51011;DHT22;37038;50.182;8.624;2023-04-03T04:11:40;3.50;99.90
51011;DHT22;37038;50.182;8.624;2023-04-03T04:14:28;3.30;99.90
51011;DHT22;37038;50.182;8.624;2023-04-03T04:17:16;3.30;99.90
51011;DHT22;37038;50.182;8.624;2023-04-03T04:20:04;3.20;99.90
51011;DHT22;37038;50.182;8.624;2023-04-03T04:22:52;3.20;99.90
51011;DHT22;37038;50.182;8.624;2023-04-03T04:25:40;3.20;99.90
51011;DHT22;37038;50.182;8.624;2023-04-03T04:28:27;3.10;99.90
51011;DHT22;37038;50.182;8.624;2023-04-03T04:31:15;3.00;99.90
51011;DHT22;37038;50.182;8.624;2023-04-03T04:34:03;2.90;99.90
51011;DHT22;37038;50.182;8.624;2023-04-03T04:36:50;2.90;99.90
51011;DHT22;37038;50.182;8.624;2023-04-03T04:39:38;3.00;99.90
51011;DHT22;37038;50.182;8.624;2023-04-03T04:42:25;2.90;99.90
51011;DHT22;37038;50.182;8.624;2023-04-03T04:45:13;2.80;99.90
51011;DHT22;37038;50.182;8.624;2023-04-03T04:48:02;2.70;99.90
51011;DHT22;37038;50.182;8.624;2023-04-03T04:50:50;2.80;99.90
51011;DHT22;37038;50.182;8.624;2023-04-03T04:53:38;2.70;99.90
51011;DHT22;37038;50.182;8.624;2023-04-03T04:56:25;2.60;99.90
51011;DHT22;37038;50.182;8.624;2023-04-03T04:59:13;2.50;99.90
51011;DHT22;37038;50.182;8.624;2023-04-03T05:02:00;2.60;99.90
51011;DHT22;37038;50.182;8.624;2023-04-03T05:04:48;2.60;99.90
51011;DHT22;37038;50.182;8.624;2023-04-03T05:07:37;2.60;99.90
51011;DHT22;37038;50.182;8.624;2023-04-03T05:10:25;2.60;99.90
51011;DHT22;37038;50.182;8.624;2023-04-03T05:13:13;2.60;99.90
51011;DHT22;37038;50.182;8.624;2023-04-03T05:16:01;2.60;99.90
51011;DHT22;37038;50.182;8.624;2023-04-03T05:18:49;2.60;99.90
51011;DHT22;37038;50.182;8.624;2023-04-03T05:21:37;2.60;99.90
51011;DHT22;37038;50.182;8.624;2023-04-03T05:24:24;2.60;99.90
51011;DHT22;37038;50.182;8.624;2023-04-03T05:27:13;2.60;99.90
51011;DHT22;37038;50.182;8.624;2023-04-03T05:30:01;2.70;99.90
51011;DHT22;37038;50.182;8.624;2023-04-03T05:32:49;3.00;99.90
51011;DHT22;37038;50.182;8.624;2023-04-03T05:35:37;3.90;99.90
51011;DHT22;37038;50.182;8.624;2023-04-03T05:38:29;4.80;99.90
51011;DHT22;37038;50.182;8.624;2023-04-03T05:41:19;5.10;99.90
51011;DHT22;37038;50.182;8.624;2023-04-03T05:44:08;5.80;99.90
51011;DHT22;37038;50.182;8.624;2023-04-03T05:46:56;6.10;99.90
51011;DHT22;37038;50.182;8.624;2023-04-03T05:49:57;6.50;99.90
51011;DHT22;37038;50.182;8.624;2023-04-03T05:52:49;6.60;99.90
51011;DHT22;37038;50.182;8.624;2023-04-03T05:55:41;6.70;99.90
51011;DHT22;37038;50.182;8.624;2023-04-03T05:58:32;6.70;99.90
51011;DHT22;37038;50.182;8.624;2023-04-03T06:01:22;6.50;99.90
51011;DHT22;37038;50.182;8.624;2023-04-03T06:04:10;7.30;99.90
51011;DHT22;37038;50.182;8.624;2023-04-03T06:07:12;7.90;99.90
51011;DHT22;37038;50.182;8.624;2023-04-03T06:10:04;8.20;99.90
51011;DHT22;37038;50.182;8.624;2023-04-03T06:12:55;8.70;99.90
51011;DHT22;37038;50.182;8.624;2023-04-03T06:15:43;8.90;99.90
51011;DHT22;37038;50.182;8.624;2023-04-03T06:18:42;8.70;99.90
51011;DHT22;37038;50.182;8.624;2023-04-03T06:21:39;8.10;99.90
51011;DHT22;37038;50.182;8.624;2023-04-03T06:24:27;8.50;99.90
51011;DHT22;37038;50.182;8.624;2023-04-03T06:27:20;8.50;99.90
51011;DHT22;37038;50.182;8.624;2023-04-03T06:30:08;9.10;99.90
51011;DHT22;37038;50.182;8.624;2023-04-03T06:32:58;9.00;99.90
51011;DHT22;37038;50.182;8.624;2023-04-03T06:35:59;8.90;99.90
51011;DHT22;37038;50.182;8.624;2023-04-03T06:38:48;9.00;99.90
51011;DHT22;37038;50.182;8.624;2023-04-03T06:41:36;8.90;99.90
51011;DHT22;37038;50.182;8.624;2023-04-03T06:44:24;9.00;99.90
51011;DHT22;37038;50.182;8.624;2023-04-03T06:47:14;9.40;99.90
51011;DHT22;37038;50.182;8.624;2023-04-03T06:50:02;9.90;99.90
51011;DHT22;37038;50.182;8.624;2023-04-03T06:52:50;9.30;99.90
51011;DHT22;37038;50.182;8.624;2023-04-03T06:55:38;10.40;97.80
51011;DHT22;37038;50.182;8.624;2023-04-03T06:58:26;10.50;96.90
51011;DHT22;37038;50.182;8.624;2023-04-03T07:01:16;11.40;94.80
51011;DHT22;37038;50.182;8.624;2023-04-03T07:04:04;10.50;94.20
51011;DHT22;37038;50.182;8.624;2023-04-03T07:06:54;10.30;94.10
51011;DHT22;37038;50.182;8.624;2023-04-03T07:09:43;10.10;93.40
51011;DHT22;37038;50.182;8.624;2023-04-03T07:12:34;10.00;93.20
51011;DHT22;37038;50.182;8.624;2023-04-03T07:15:27;10.30;92.40
51011;DHT22;37038;50.182;8.624;2023-04-03T07:18:18;10.60;92.60
51011;DHT22;37038;50.182;8.624;2023-04-03T07:21:23;10.40;91.00
51011;DHT22;37038;50.182;8.624;2023-04-03T07:24:14;10.00;91.50
51011;DHT22;37038;50.182;8.624;2023-04-03T07:27:15;10.00;91.70
51011;DHT22;37038;50.182;8.624;2023-04-03T07:30:03;9.60;92.80
51011;DHT22;37038;50.182;8.624;2023-04-03T07:32:54;10.10;93.30
51011;DHT22;37038;50.182;8.624;2023-04-03T07:35:46;10.20;91.80
51011;DHT22;37038;50.182;8.624;2023-04-03T07:38:35;10.30;92.50
51011;DHT22;37038;50.182;8.624;2023-04-03T07:41:27;10.90;90.50
51011;DHT22;37038;50.182;8.624;2023-04-03T07:44:18;11.70;86.80
51011;DHT22;37038;50.182;8.624;2023-04-03T07:47:06;10.50;90.20
51011;DHT22;37038;50.182;8.624;2023-04-03T07:49:54;10.50;90.40
51011;DHT22;37038;50.182;8.624;2023-04-03T07:52:41;10.80;89.80
51011;DHT22;37038;50.182;8.624;2023-04-03T07:55:29;11.20;89.60
51011;DHT22;37038;50.182;8.624;2023-04-03T07:58:24;11.00;83.80
51011;DHT22;37038;50.182;8.624;2023-04-03T08:01:12;11.20;82.10
51011;DHT22;37038;50.182;8.624;2023-04-03T08:04:00;11.30;84.30
51011;DHT22;37038;50.182;8.624;2023-04-03T08:06:50;11.00;82.90
51011;DHT22;37038;50.182;8.624;2023-04-03T08:09:38;11.40;82.50
51011;DHT22;37038;50.182;8.624;2023-04-03T08:12:42;10.90;82.80
51011;DHT22;37038;50.182;8.624;2023-04-03T08:15:36;11.60;81.40
51011;DHT22;37038;50.182;8.624;2023-04-03T08:18:31;13.00;74.80
51011;DHT22;37038;50.182;8.624;2023-04-03T08:21:22;11.30;77.30
51011;DHT22;37038;50.182;8.624;2023-04-03T08:24:10;10.50;78.10
51011;DHT22;37038;50.182;8.624;2023-04-03T08:26:59;11.10;76.30
51011;DHT22;37038;50.182;8.624;2023-04-03T08:29:48;11.30;77.80
51011;DHT22;37038;50.182;8.624;2023-04-03T08:32:38;12.10;74.50
51011;DHT22;37038;50.182;8.624;2023-04-03T08:35:29;12.70;72.70
51011;DHT22;37038;50.182;8.624;2023-04-03T08:38:20;12.50;68.70
51011;DHT22;37038;50.182;8.624;2023-04-03T08:44:42;12.30;65.90
51011;DHT22;37038;50.182;8.624;2023-04-03T08:47:50;12.90;64.90
51011;DHT22;37038;50.182;8.624;2023-04-03T08:50:51;13.30;65.40
51011;DHT22;37038;50.182;8.624;2023-04-03T08:53:55;12.70;59.90
51011;DHT22;37038;50.182;8.624;2023-04-03T08:56:51;13.00;58.70
51011;DHT22;37038;50.182;8.624;2023-04-03T08:59:46;12.50;60.70
51011;DHT22;37038;50.182;8.624;2023-04-03T09:02:43;12.40;59.70
51011;DHT22;37038;50.182;8.624;2023-04-03T09:09:35;13.10;53.30
51011;DHT22;37038;50.182;8.624;2023-04-03T09:12:39;12.20;54.30
51011;DHT22;37038;50.182;8.624;2023-04-03T09:15:32;12.00;55.60
51011;DHT22;37038;50.182;8.624;2023-04-03T09:18:35;12.60;53.30
51011;DHT22;37038;50.182;8.624;2023-04-03T09:21:39;13.20;53.60
51011;DHT22;37038;50.182;8.624;2023-04-03T09:24:31;13.60;51.80
51011;DHT22;37038;50.182;8.624;2023-04-03T09:27:22;13.40;49.90
51011;DHT22;37038;50.182;8.624;2023-04-03T09:30:19;12.90;52.40
51011;DHT22;37038;50.182;8.624;2023-04-03T09:33:22;13.10;50.50
51011;DHT22;37038;50.182;8.624;2023-04-03T09:36:41;12.90;47.90
51011;DHT22;37038;50.182;8.624;2023-04-03T09:39:52;13.70;44.30
51011;DHT22;37038;50.182;8.624;2023-04-03T09:43:01;13.70;45.40
51011;DHT22;37038;50.182;8.624;2023-04-03T09:45:53;13.30;46.60
51011;DHT22;37038;50.182;8.624;2023-04-03T09:49:00;12.70;45.60
51011;DHT22;37038;50.182;8.624;2023-04-03T09:52:23;12.30;45.80
51011;DHT22;37038;50.182;8.624;2023-04-03T09:55:25;11.90;44.50
51011;DHT22;37038;50.182;8.624;2023-04-03T09:58:30;11.30;47.50
51011;DHT22;37038;50.182;8.624;2023-04-03T10:01:39;13.10;46.90
51011;DHT22;37038;50.182;8.624;2023-04-03T10:04:41;13.50;45.90
51011;DHT22;37038;50.182;8.624;2023-04-03T10:07:35;13.80;43.30
51011;DHT22;37038;50.182;8.624;2023-04-03T10:10:24;14.50;45.70
51011;DHT22;37038;50.182;8.624;2023-04-03T10:13:20;13.60;39.10
51011;DHT22;37038;50.182;8.624;2023-04-03T10:16:23;11.70;41.20
51011;DHT22;37038;50.182;8.624;2023-04-03T10:23:26;9.60;46.50
51011;DHT22;37038;50.182;8.624;2023-04-03T10:29:39;12.90;43.00
51011;DHT22;37038;50.182;8.624;2023-04-03T10:32:51;13.90;39.00
51011;DHT22;37038;50.182;8.624;2023-04-03T10:36:17;14.00;37.30
51011;DHT22;37038;50.182;8.624;2023-04-03T10:42:53;13.50;33.90
51011;DHT22;37038;50.182;8.624;2023-04-03T10:53:03;14.30;32.40
51011;DHT22;37038;50.182;8.624;2023-04-03T10:55:42;12.40;31.10
51011;DHT22;37038;50.182;8.624;2023-04-03T10:58:44;13.40;30.80
51011;DHT22;37038;50.182;8.624;2023-04-03T11:01:39;14.40;32.40
51011;DHT22;37038;50.182;8.624;2023-04-03T11:04:33;14.00;27.90
51011;DHT22;37038;50.182;8.624;2023-04-03T11:07:33;12.90;29.60
51011;DHT22;37038;50.182;8.624;2023-04-03T11:17:09;13.50;28.30
51011;DHT22;37038;50.182;8.624;2023-04-03T11:20:17;13.50;30.90
51011;DHT22;37038;50.182;8.624;2023-04-03T11:23:32;14.80;28.30
51011;DHT22;37038;50.182;8.624;2023-04-03T11:26:39;13.80;25.20
51011;DHT22;37038;50.182;8.624;2023-04-03T11:29:36;15.00;26.50
51011;DHT22;37038;50.182;8.624;2023-04-03T11:32:44;15.00;24.50
51011;DHT22;37038;50.182;8.624;2023-04-03T11:35:44;15.50;23.10
51011;DHT22;37038;50.182;8.624;2023-04-03T11:38:38;16.50;21.90
51011;DHT22;37038;50.182;8.624;2023-04-03T11:41:37;16.60;19.50
51011;DHT22;37038;50.182;8.624;2023-04-03T11:44:43;14.50;20.90
51011;DHT22;37038;50.182;8.624;2023-04-03T11:47:48;14.70;20.30
51011;DHT22;37038;50.182;8.624;2023-04-03T11:50:44;14.80;19.80
51011;DHT22;37038;50.182;8.624;2023-04-03T11:53:37;15.30;20.10
51011;DHT22;37038;50.182;8.624;2023-04-03T11:59:16;14.70;21.60
51011;DHT22;37038;50.182;8.624;2023-04-03T12:02:35;15.40;21.60
51011;DHT22;37038;50.182;8.624;2023-04-03T12:05:41;15.20;22.40
51011;DHT22;37038;50.182;8.624;2023-04-03T12:11:31;14.50;22.30
51011;DHT22;37038;50.182;8.624;2023-04-03T12:14:22;15.20;20.70
51011;DHT22;37038;50.182;8.624;2023-04-03T12:17:26;15.70;19.70
51011;DHT22;37038;50.182;8.624;2023-04-03T12:24:05;14.30;16.50
51011;DHT22;37038;50.182;8.624;2023-04-03T12:27:38;14.70;17.70
51011;DHT22;37038;50.182;8.624;2023-04-03T12:30:30;14.70;18.50
51011;DHT22;37038;50.182;8.624;2023-04-03T12:33:24;14.00;17.90
51011;DHT22;37038;50.182;8.624;2023-04-03T12:36:50;14.90;20.50
51011;DHT22;37038;50.182;8.624;2023-04-03T12:46:46;15.70;17.60
51011;DHT22;37038;50.182;8.624;2023-04-03T12:49:42;15.20;17.10
51011;DHT22;37038;50.182;8.624;2023-04-03T12:52:37;16.40;18.10
51011;DHT22;37038;50.182;8.624;2023-04-03T12:55:25;15.20;14.50
51011;DHT22;37038;50.182;8.624;2023-04-03T12:58:25;15.00;16.70
51011;DHT22;37038;50.182;8.624;2023-04-03T13:01:18;15.20;17.40
51011;DHT22;37038;50.182;8.624;2023-04-03T13:04:11;16.00;15.80
51011;DHT22;37038;50.182;8.624;2023-04-03T13:07:01;15.00;15.70
51011;DHT22;37038;50.182;8.624;2023-04-03T13:12:58;14.60;17.00
51011;DHT22;37038;50.182;8.624;2023-04-03T13:15:47;14.60;17.00
51011;DHT22;37038;50.182;8.624;2023-04-03T13:18:39;13.90;15.90
51011;DHT22;37038;50.182;8.624;2023-04-03T13:21:32;15.30;14.50
51011;DHT22;37038;50.182;8.624;2023-04-03T13:24:21;16.30;15.70
51011;DHT22;37038;50.182;8.624;2023-04-03T13:27:11;15.70;13.60
51011;DHT22;37038;50.182;8.624;2023-04-03T13:30:03;15.30;16.50
51011;DHT22;37038;50.182;8.624;2023-04-03T13:32:52;16.20;13.60
51011;DHT22;37038;50.182;8.624;2023-04-03T13:35:42;16.30;13.20
51011;DHT22;37038;50.182;8.624;2023-04-03T13:38:31;15.30;14.90
51011;DHT22;37038;50.182;8.624;2023-04-03T13:41:25;14.70;13.60
51011;DHT22;37038;50.182;8.624;2023-04-03T13:47:20;14.50;13.50
51011;DHT22;37038;50.182;8.624;2023-04-03T13:50:21;16.00;12.70
51011;DHT22;37038;50.182;8.624;2023-04-03T13:53:16;15.90;14.90
51011;DHT22;37038;50.182;8.624;2023-04-03T13:56:13;14.30;15.00
51011;DHT22;37038;50.182;8.624;2023-04-03T14:04:56;14.70;14.00
51011;DHT22;37038;50.182;8.624;2023-04-03T14:07:46;15.10;14.20
51011;DHT22;37038;50.182;8.624;2023-04-03T14:10:34;15.50;14.00
51011;DHT22;37038;50.182;8.624;2023-04-03T14:13:24;16.50;14.80
51011;DHT22;37038;50.182;8.624;2023-04-03T14:16:19;16.30;14.30
51011;DHT22;37038;50.182;8.624;2023-04-03T14:19:14;15.70;14.40
51011;DHT22;37038;50.182;8.624;2023-04-03T14:22:37;14.90;12.70
51011;DHT22;37038;50.182;8.624;2023-04-03T14:25:28;15.80;14.70
51011;DHT22;37038;50.182;8.624;2023-04-03T14:28:21;15.40;13.00
51011;DHT22;37038;50.182;8.624;2023-04-03T14:31:11;15.00;11.00
51011;DHT22;37038;50.182;8.624;2023-04-03T14:34:13;14.40;12.60
51011;DHT22;37038;50.182;8.624;2023-04-03T14:37:02;13.80;13.00
51011;DHT22;37038;50.182;8.624;2023-04-03T14:39:59;13.80;14.10
51011;DHT22;37038;50.182;8.624;2023-04-03T14:42:50;14.30;13.10
51011;DHT22;37038;50.182;8.624;2023-04-03T14:45:38;14.50;14.30
51011;DHT22;37038;50.182;8.624;2023-04-03T14:48:27;14.70;14.30
51011;DHT22;37038;50.182;8.624;2023-04-03T14:51:21;15.40;14.80
51011;DHT22;37038;50.182;8.624;2023-04-03T14:54:15;14.60;12.30
51011;DHT22;37038;50.182;8.624;2023-04-03T14:57:11;14.00;12.30
51011;DHT22;37038;50.182;8.624;2023-04-03T15:00:00;13.40;12.10
51011;DHT22;37038;50.182;8.624;2023-04-03T15:02:50;13.40;11.20
51011;DHT22;37038;50.182;8.624;2023-04-03T15:05:38;13.50;11.90
51011;DHT22;37038;50.182;8.624;2023-04-03T15:08:29;13.60;13.30
51011;DHT22;37038;50.182;8.624;2023-04-03T15:11:19;13.80;12.90
51011;DHT22;37038;50.182;8.624;2023-04-03T15:14:09;13.80;12.70
51011;DHT22;37038;50.182;8.624;2023-04-03T15:16:59;13.80;13.30
51011;DHT22;37038;50.182;8.624;2023-04-03T15:19:50;13.10;15.00
51011;DHT22;37038;50.182;8.624;2023-04-03T15:22:38;14.20;14.30
51011;DHT22;37038;50.182;8.624;2023-04-03T15:25:26;13.70;13.70
51011;DHT22;37038;50.182;8.624;2023-04-03T15:28:41;13.70;14.80
51011;DHT22;37038;50.182;8.624;2023-04-03T15:31:35;14.10;11.90
51011;DHT22;37038;50.182;8.624;2023-04-03T15:34:23;13.40;14.50
51011;DHT22;37038;50.182;8.624;2023-04-03T15:37:11;13.00;11.50
51011;DHT22;37038;50.182;8.624;2023-04-03T15:39:59;13.10;13.30
51011;DHT22;37038;50.182;8.624;2023-04-03T15:42:49;12.60;12.10
51011;DHT22;37038;50.182;8.624;2023-04-03T15:45:39;12.60;14.00
51011;DHT22;37038;50.182;8.624;2023-04-03T15:48:31;12.10;14.30
51011;DHT22;37038;50.182;8.624;2023-04-03T15:51:19;11.90;15.90
51011;DHT22;37038;50.182;8.624;2023-04-03T15:54:07;12.40;15.90
51011;DHT22;37038;50.182;8.624;2023-04-03T15:56:56;13.00;15.10
51011;DHT22;37038;50.182;8.624;2023-04-03T15:59:44;13.30;15.60
51011;DHT22;37038;50.182;8.624;2023-04-03T16:02:32;12.40;15.50
51011;DHT22;37038;50.182;8.624;2023-04-03T16:05:21;11.90;13.30
51011;DHT22;37038;50.182;8.624;2023-04-03T16:08:12;11.80;14.10
51011;DHT22;37038;50.182;8.624;2023-04-03T16:11:00;11.80;13.80
51011;DHT22;37038;50.182;8.624;2023-04-03T16:13:48;11.80;13.30
51011;DHT22;37038;50.182;8.624;2023-04-03T16:16:35;11.60;14.80
51011;DHT22;37038;50.182;8.624;2023-04-03T16:19:24;11.90;15.70
51011;DHT22;37038;50.182;8.624;2023-04-03T16:22:12;12.10;15.50
51011;DHT22;37038;50.182;8.624;2023-04-03T16:25:09;11.30;14.80
51011;DHT22;37038;50.182;8.624;2023-04-03T16:27:57;10.90;15.50
51011;DHT22;37038;50.182;8.624;2023-04-03T16:30:45;10.60;14.50
51011;DHT22;37038;50.182;8.624;2023-04-03T16:33:37;11.00;15.10
51011;DHT22;37038;50.182;8.624;2023-04-03T16:36:25;10.90;18.30
51011;DHT22;37038;50.182;8.624;2023-04-03T16:39:13;10.60;15.70
51011;DHT22;37038;50.182;8.624;2023-04-03T16:42:01;10.60;16.00
51011;DHT22;37038;50.182;8.624;2023-04-03T16:44:48;10.20;16.10
51011;DHT22;37038;50.182;8.624;2023-04-03T16:47:36;9.90;18.60
51011;DHT22;37038;50.182;8.624;2023-04-03T16:50:24;9.70;17.50
51011;DHT22;37038;50.182;8.624;2023-04-03T16:53:12;9.60;17.80
51011;DHT22;37038;50.182;8.624;2023-04-03T16:56:00;9.80;16.70
51011;DHT22;37038;50.182;8.624;2023-04-03T16:58:48;9.80;17.40
51011;DHT22;37038;50.182;8.624;2023-04-03T17:01:35;9.50;17.50
51011;DHT22;37038;50.182;8.624;2023-04-03T17:04:24;9.30;18.80
51011;DHT22;37038;50.182;8.624;2023-04-03T17:07:11;9.30;18.80
51011;DHT22;37038;50.182;8.624;2023-04-03T17:10:05;9.00;18.70
51011;DHT22;37038;50.182;8.624;2023-04-03T17:12:53;9.30;20.10
51011;DHT22;37038;50.182;8.624;2023-04-03T17:15:41;8.60;19.30
51011;DHT22;37038;50.182;8.624;2023-04-03T17:18:30;8.80;20.10
51011;DHT22;37038;50.182;8.624;2023-04-03T17:21:18;8.30;21.20
51011;DHT22;37038;50.182;8.624;2023-04-03T17:24:08;7.60;21.20
51011;DHT22;37038;50.182;8.624;2023-04-03T17:27:02;7.20;22.10
51011;DHT22;37038;50.182;8.624;2023-04-03T17:29:50;6.80;23.70
51011;DHT22;37038;50.182;8.624;2023-04-03T17:32:38;6.70;23.60
51011;DHT22;37038;50.182;8.624;2023-04-03T17:35:26;6.60;23.80
51011;DHT22;37038;50.182;8.624;2023-04-03T17:38:17;6.50;23.30
51011;DHT22;37038;50.182;8.624;2023-04-03T17:41:07;6.30;23.00
51011;DHT22;37038;50.182;8.624;2023-04-03T17:43:55;6.10;24.10
51011;DHT22;37038;50.182;8.624;2023-04-03T17:46:43;6.10;26.40
51011;DHT22;37038;50.182;8.624;2023-04-03T17:49:31;6.00;27.50
51011;DHT22;37038;50.182;8.624;2023-04-03T17:52:20;5.90;26.80
51011;DHT22;37038;50.182;8.624;2023-04-03T17:55:10;5.90;27.90
51011;DHT22;37038;50.182;8.624;2023-04-03T17:58:02;5.70;27.90
51011;DHT22;37038;50.182;8.624;2023-04-03T18:00:50;5.60;28.90
51011;DHT22;37038;50.182;8.624;2023-04-03T18:03:38;5.60;29.50
51011;DHT22;37038;50.182;8.624;2023-04-03T18:06:29;5.40;30.10
51011;DHT22;37038;50.182;8.624;2023-04-03T18:09:28;5.40;32.30
51011;DHT22;37038;50.182;8.624;2023-04-03T18:12:18;5.30;31.30
51011;DHT22;37038;50.182;8.624;2023-04-03T18:15:06;5.20;31.10
51011;DHT22;37038;50.182;8.624;2023-04-03T18:17:56;5.10;32.00
51011;DHT22;37038;50.182;8.624;2023-04-03T18:20:44;5.00;31.10
51011;DHT22;37038;50.182;8.624;2023-04-03T18:23:34;4.90;31.90
51011;DHT22;37038;50.182;8.624;2023-04-03T18:26:25;4.90;32.50
51011;DHT22;37038;50.182;8.624;2023-04-03T18:29:14;4.80;31.20
51011;DHT22;37038;50.182;8.624;2023-04-03T18:32:07;4.80;30.80
51011;DHT22;37038;50.182;8.624;2023-04-03T18:34:58;4.70;29.80
51011;DHT22;37038;50.182;8.624;2023-04-03T18:37:46;4.70;30.50
51011;DHT22;37038;50.182;8.624;2023-04-03T18:40:35;4.60;31.00
51011;DHT22;37038;50.182;8.624;2023-04-03T18:43:30;4.60;33.30
51011;DHT22;37038;50.182;8.624;2023-04-03T18:46:23;4.50;33.10
51011;DHT22;37038;50.182;8.624;2023-04-03T18:49:11;4.50;33.90
51011;DHT22;37038;50.182;8.624;2023-04-03T18:52:00;4.40;35.30
51011;DHT22;37038;50.182;8.624;2023-04-03T18:54:48;4.30;34.70
51011;DHT22;37038;50.182;8.624;2023-04-03T18:57:35;4.30;35.30
51011;DHT22;37038;50.182;8.624;2023-04-03T19:00:23;4.20;35.10
51011;DHT22;37038;50.182;8.624;2023-04-03T19:03:12;4.20;36.30
51011;DHT22;37038;50.182;8.624;2023-04-03T19:06:01;4.10;36.60
51011;DHT22;37038;50.182;8.624;2023-04-03T19:08:50;4.10;38.00
51011;DHT22;37038;50.182;8.624;2023-04-03T19:11:38;4.10;38.90
51011;DHT22;37038;50.182;8.624;2023-04-03T19:14:28;4.00;39.00
51011;DHT22;37038;50.182;8.624;2023-04-03T19:17:18;4.00;38.40
51011;DHT22;37038;50.182;8.624;2023-04-03T19:20:08;3.90;41.00
51011;DHT22;37038;50.182;8.624;2023-04-03T19:22:56;3.90;39.80